sensor_id;sensor_type;location;lat;lon;timestamp;P1;durP1;ratioP1;P2;durP2;ratioP2
26102;SDS011;32703;49.182;9.042;2022-10-04T00:03:08;4.13;;;2.40;;
26102;SDS011;32703;49.182;9.042;2022-10-04T00:05:35;3.47;;;2.53;;
26102;SDS011;32703;49.182;9.042;2022-10-04T00:11:05;4.00;;;2.23;;
26102;SDS011;32703;49.182;9.042;2022-10-04T00:13:37;5.00;;;2.07;;
26102;SDS011;32703;49.182;9.042;2022-10-04T00:16:04;4.63;;;2.47;;
26102;SDS011;32703;49.182;9.042;2022-10-04T00:21:03;5.47;;;2.73;;
26102;SDS011;32703;49.182;9.042;2022-10-04T00:26:07;3.90;;;2.20;;
26102;SDS011;32703;49.182;9.042;2022-10-04T00:28:45;3.83;;;2.30;;
26102;SDS011;32703;49.182;9.042;2022-10-04T00:31:12;4.70;;;2.57;;
26102;SDS011;32703;49.182;9.042;2022-10-04T00:33:52;5.67;;;2.50;;
26102;SDS011;32703;49.182;9.042;2022-10-04T00:39:01;2.77;;;1.63;;
26102;SDS011;32703;49.182;9.042;2022-10-04T00:41:53;1.90;;;1.60;;
26102;SDS011;32703;49.182;9.042;2022-10-04T00:44:27;3.80;;;1.60;;
26102;SDS011;32703;49.182;9.042;2022-10-04T00:46:54;1.87;;;1.43;;
26102;SDS011;32703;49.182;9.042;2022-10-04T00:49:23;2.70;;;1.33;;
26102;SDS011;32703;49.182;9.042;2022-10-04T00:51:55;2.40;;;1.63;;
26102;SDS011;32703;49.182;9.042;2022-10-04T00:54:25;2.00;;;1.30;;
26102;SDS011;32703;49.182;9.042;2022-10-04T00:57:06;2.77;;;1.47;;
26102;SDS011;32703;49.182;9.042;2022-10-04T00:59:47;1.43;;;1.17;;
26102;SDS011;32703;49.182;9.042;2022-10-04T01:05:09;1.63;;;1.43;;
26102;SDS011;32703;49.182;9.042;2022-10-04T01:10:09;4.00;;;1.90;;
26102;SDS011;32703;49.182;9.042;2022-10-04T01:12:47;2.77;;;1.70;;
26102;SDS011;32703;49.182;9.042;2022-10-04T01:20:56;3.63;;;1.97;;
26102;SDS011;32703;49.182;9.042;2022-10-04T01:23:41;2.90;;;1.60;;
26102;SDS011;32703;49.182;9.042;2022-10-04T01:28:55;2.97;;;1.70;;
26102;SDS011;32703;49.182;9.042;2022-10-04T01:31:25;2.80;;;1.80;;
26102;SDS011;32703;49.182;9.042;2022-10-04T01:33:57;3.47;;;2.20;;
26102;SDS011;32703;49.182;9.042;2022-10-04T01:36:24;3.13;;;1.60;;
26102;SDS011;32703;49.182;9.042;2022-10-04T01:38:51;2.53;;;1.83;;
26102;SDS011;32703;49.182;9.042;2022-10-04T01:41:19;3.10;;;1.90;;
26102;SDS011;32703;49.182;9.042;2022-10-04T01:43:51;3.73;;;1.90;;
26102;SDS011;32703;49.182;9.042;2022-10-04T01:46:22;3.80;;;1.57;;
26102;SDS011;32703;49.182;9.042;2022-10-04T01:48:50;5.53;;;2.20;;
26102;SDS011;32703;49.182;9.042;2022-10-04T01:51:24;3.47;;;1.83;;
26102;SDS011;32703;49.182;9.042;2022-10-04T01:54:01;3.50;;;2.07;;
26102;SDS011;32703;49.182;9.042;2022-10-04T01:56:31;3.73;;;2.00;;
26102;SDS011;32703;49.182;9.042;2022-10-04T01:59:05;4.47;;;2.20;;
26102;SDS011;32703;49.182;9.042;2022-10-04T02:01:49;3.93;;;1.83;;
26102;SDS011;32703;49.182;9.042;2022-10-04T02:04:26;3.17;;;2.13;;
26102;SDS011;32703;49.182;9.042;2022-10-04T02:06:55;4.40;;;2.30;;
26102;SDS011;32703;49.182;9.042;2022-10-04T02:09:28;4.00;;;1.70;;
26102;SDS011;32703;49.182;9.042;2022-10-04T02:11:57;2.73;;;1.80;;
26102;SDS011;32703;49.182;9.042;2022-10-04T02:14:25;2.80;;;1.70;;
26102;SDS011;32703;49.182;9.042;2022-10-04T02:16:53;3.50;;;1.53;;
26102;SDS011;32703;49.182;9.042;2022-10-04T02:19:20;2.77;;;1.87;;
26102;SDS011;32703;49.182;9.042;2022-10-04T02:21:51;5.33;;;2.10;;
26102;SDS011;32703;49.182;9.042;2022-10-04T02:24:17;5.67;;;2.60;;
26102;SDS011;32703;49.182;9.042;2022-10-04T02:26:50;5.07;;;2.73;;
26102;SDS011;32703;49.182;9.042;2022-10-04T02:29:17;3.53;;;2.23;;
26102;SDS011;32703;49.182;9.042;2022-10-04T02:31:44;4.50;;;2.50;;
26102;SDS011;32703;49.182;9.042;2022-10-04T02:34:45;5.00;;;2.23;;
26102;SDS011;32703;49.182;9.042;2022-10-04T02:37:11;4.00;;;2.37;;
26102;SDS011;32703;49.182;9.042;2022-10-04T02:39:48;4.73;;;2.20;;
26102;SDS011;32703;49.182;9.042;2022-10-04T02:42:32;3.97;;;2.27;;
26102;SDS011;32703;49.182;9.042;2022-10-04T02:45:21;4.23;;;2.13;;
26102;SDS011;32703;49.182;9.042;2022-10-04T02:48:00;5.30;;;2.63;;
26102;SDS011;32703;49.182;9.042;2022-10-04T02:50:32;3.33;;;1.87;;
26102;SDS011;32703;49.182;9.042;2022-10-04T02:55:43;4.70;;;3.03;;
26102;SDS011;32703;49.182;9.042;2022-10-04T02:58:09;4.73;;;2.43;;
26102;SDS011;32703;49.182;9.042;2022-10-04T03:00:49;3.93;;;2.23;;
26102;SDS011;32703;49.182;9.042;2022-10-04T03:03:27;4.13;;;2.17;;
26102;SDS011;32703;49.182;9.042;2022-10-04T03:08:31;3.07;;;1.93;;
26102;SDS011;32703;49.182;9.042;2022-10-04T03:11:18;3.00;;;1.60;;
26102;SDS011;32703;49.182;9.042;2022-10-04T03:13:47;3.20;;;1.83;;
26102;SDS011;32703;49.182;9.042;2022-10-04T03:16:15;2.13;;;1.50;;
26102;SDS011;32703;49.182;9.042;2022-10-04T03:18:41;2.50;;;1.50;;
26102;SDS011;32703;49.182;9.042;2022-10-04T03:21:08;3.00;;;1.40;;
26102;SDS011;32703;49.182;9.042;2022-10-04T03:23:37;3.00;;;1.40;;
26102;SDS011;32703;49.182;9.042;2022-10-04T03:29:19;3.33;;;1.73;;
26102;SDS011;32703;49.182;9.042;2022-10-04T03:31:48;2.87;;;1.50;;
26102;SDS011;32703;49.182;9.042;2022-10-04T03:34:23;2.50;;;1.37;;
26102;SDS011;32703;49.182;9.042;2022-10-04T03:36:51;1.70;;;1.37;;
26102;SDS011;32703;49.182;9.042;2022-10-04T03:39:26;5.13;;;1.70;;
26102;SDS011;32703;49.182;9.042;2022-10-04T03:42:01;2.30;;;1.40;;
26102;SDS011;32703;49.182;9.042;2022-10-04T03:44:31;2.33;;;1.83;;
26102;SDS011;32703;49.182;9.042;2022-10-04T03:46:58;1.80;;;1.20;;
26102;SDS011;32703;49.182;9.042;2022-10-04T03:49:29;1.43;;;1.10;;
26102;SDS011;32703;49.182;9.042;2022-10-04T03:51:57;2.00;;;1.37;;
26102;SDS011;32703;49.182;9.042;2022-10-04T03:54:24;2.43;;;1.57;;
26102;SDS011;32703;49.182;9.042;2022-10-04T03:56:52;2.33;;;1.60;;
26102;SDS011;32703;49.182;9.042;2022-10-04T03:59:19;1.83;;;1.57;;
26102;SDS011;32703;49.182;9.042;2022-10-04T04:04:40;2.27;;;1.47;;
26102;SDS011;32703;49.182;9.042;2022-10-04T04:07:23;1.93;;;1.27;;
26102;SDS011;32703;49.182;9.042;2022-10-04T04:12:57;3.43;;;1.83;;
26102;SDS011;32703;49.182;9.042;2022-10-04T04:15:50;3.53;;;1.60;;
26102;SDS011;32703;49.182;9.042;2022-10-04T04:18:25;3.13;;;1.57;;
26102;SDS011;32703;49.182;9.042;2022-10-04T04:20:54;1.93;;;1.30;;
26102;SDS011;32703;49.182;9.042;2022-10-04T04:29:10;1.87;;;1.20;;
26102;SDS011;32703;49.182;9.042;2022-10-04T04:31:44;2.00;;;1.50;;
26102;SDS011;32703;49.182;9.042;2022-10-04T04:34:19;2.07;;;1.33;;
26102;SDS011;32703;49.182;9.042;2022-10-04T04:36:46;2.43;;;1.47;;
26102;SDS011;32703;49.182;9.042;2022-10-04T04:39:17;2.13;;;1.33;;
26102;SDS011;32703;49.182;9.042;2022-10-04T04:44:47;2.07;;;1.40;;
26102;SDS011;32703;49.182;9.042;2022-10-04T04:52:44;2.30;;;1.50;;
26102;SDS011;32703;49.182;9.042;2022-10-04T04:55:15;2.83;;;1.37;;
26102;SDS011;32703;49.182;9.042;2022-10-04T04:57:43;1.87;;;1.37;;
26102;SDS011;32703;49.182;9.042;2022-10-04T05:00:15;2.77;;;1.43;;
26102;SDS011;32703;49.182;9.042;2022-10-04T05:02:49;1.67;;;1.10;;
26102;SDS011;32703;49.182;9.042;2022-10-04T05:05:22;1.70;;;1.10;;
26102;SDS011;32703;49.182;9.042;2022-10-04T05:10:37;3.40;;;1.43;;
26102;SDS011;32703;49.182;9.042;2022-10-04T05:13:10;2.33;;;1.53;;
26102;SDS011;32703;49.182;9.042;2022-10-04T05:15:38;2.23;;;1.60;;
26102;SDS011;32703;49.182;9.042;2022-10-04T05:18:12;2.13;;;1.30;;
26102;SDS011;32703;49.182;9.042;2022-10-04T05:20:51;2.23;;;1.40;;
26102;SDS011;32703;49.182;9.042;2022-10-04T05:23:17;1.40;;;1.23;;
26102;SDS011;32703;49.182;9.042;2022-10-04T05:25:43;2.50;;;1.40;;
26102;SDS011;32703;49.182;9.042;2022-10-04T05:28:10;2.60;;;1.77;;
26102;SDS011;32703;49.182;9.042;2022-10-04T05:30:41;2.10;;;1.30;;
26102;SDS011;32703;49.182;9.042;2022-10-04T05:33:23;2.20;;;1.37;;
26102;SDS011;32703;49.182;9.042;2022-10-04T05:36:15;1.83;;;1.23;;
26102;SDS011;32703;49.182;9.042;2022-10-04T05:39:07;1.53;;;1.13;;
26102;SDS011;32703;49.182;9.042;2022-10-04T05:42:35;2.77;;;1.30;;
26102;SDS011;32703;49.182;9.042;2022-10-04T05:44:52;1.90;;;1.33;;
26102;SDS011;32703;49.182;9.042;2022-10-04T05:47:19;2.33;;;1.50;;
26102;SDS011;32703;49.182;9.042;2022-10-04T05:49:49;2.20;;;1.50;;
26102;SDS011;32703;49.182;9.042;2022-10-04T05:52:27;2.33;;;1.50;;
26102;SDS011;32703;49.182;9.042;2022-10-04T06:00:40;2.33;;;1.43;;
26102;SDS011;32703;49.182;9.042;2022-10-04T06:03:25;1.93;;;1.43;;
26102;SDS011;32703;49.182;9.042;2022-10-04T06:06:47;1.90;;;1.23;;
26102;SDS011;32703;49.182;9.042;2022-10-04T06:09:18;5.00;;;2.43;;
26102;SDS011;32703;49.182;9.042;2022-10-04T06:14:39;3.97;;;1.77;;
26102;SDS011;32703;49.182;9.042;2022-10-04T06:22:43;2.50;;;1.63;;
26102;SDS011;32703;49.182;9.042;2022-10-04T06:25:34;2.63;;;1.50;;
26102;SDS011;32703;49.182;9.042;2022-10-04T06:33:58;2.13;;;1.33;;
26102;SDS011;32703;49.182;9.042;2022-10-04T06:47:18;3.00;;;2.10;;
26102;SDS011;32703;49.182;9.042;2022-10-04T06:50:23;2.83;;;1.67;;
26102;SDS011;32703;49.182;9.042;2022-10-04T07:00:55;4.10;;;2.33;;
26102;SDS011;32703;49.182;9.042;2022-10-04T07:06:04;4.50;;;2.13;;
26102;SDS011;32703;49.182;9.042;2022-10-04T07:08:49;2.90;;;2.00;;
26102;SDS011;32703;49.182;9.042;2022-10-04T07:13:50;4.53;;;2.27;;
26102;SDS011;32703;49.182;9.042;2022-10-04T07:19:19;2.53;;;1.57;;
26102;SDS011;32703;49.182;9.042;2022-10-04T07:29:54;3.50;;;2.47;;
26102;SDS011;32703;49.182;9.042;2022-10-04T07:32:24;7.57;;;2.65;;
26102;SDS011;32703;49.182;9.042;2022-10-04T07:35:01;3.75;;;2.35;;
26102;SDS011;32703;49.182;9.042;2022-10-04T07:37:35;9.20;;;2.50;;
26102;SDS011;32703;49.182;9.042;2022-10-04T07:40:17;2.47;;;1.73;;
26102;SDS011;32703;49.182;9.042;2022-10-04T07:42:52;3.10;;;2.35;;
26102;SDS011;32703;49.182;9.042;2022-10-04T07:45:34;4.45;;;2.33;;
26102;SDS011;32703;49.182;9.042;2022-10-04T07:48:16;3.22;;;2.15;;
26102;SDS011;32703;49.182;9.042;2022-10-04T07:53:26;4.93;;;2.22;;
26102;SDS011;32703;49.182;9.042;2022-10-04T07:56:01;4.45;;;2.20;;
26102;SDS011;32703;49.182;9.042;2022-10-04T08:01:06;10.18;;;2.28;;
26102;SDS011;32703;49.182;9.042;2022-10-04T08:09:17;4.07;;;2.38;;
26102;SDS011;32703;49.182;9.042;2022-10-04T08:12:06;4.47;;;2.85;;
26102;SDS011;32703;49.182;9.042;2022-10-04T08:18:02;3.05;;;1.90;;
26102;SDS011;32703;49.182;9.042;2022-10-04T08:23:05;4.40;;;2.38;;
26102;SDS011;32703;49.182;9.042;2022-10-04T08:25:55;6.05;;;2.58;;
26102;SDS011;32703;49.182;9.042;2022-10-04T08:37:31;3.47;;;2.00;;
26102;SDS011;32703;49.182;9.042;2022-10-04T09:05:18;4.28;;;2.15;;
26102;SDS011;32703;49.182;9.042;2022-10-04T09:14:28;3.90;;;2.40;;
26102;SDS011;32703;49.182;9.042;2022-10-04T09:24:46;3.85;;;2.17;;
26102;SDS011;32703;49.182;9.042;2022-10-04T09:27:43;4.05;;;1.80;;
26102;SDS011;32703;49.182;9.042;2022-10-04T09:30:32;3.88;;;2.22;;
26102;SDS011;32703;49.182;9.042;2022-10-04T09:39:23;3.50;;;2.00;;
26102;SDS011;32703;49.182;9.042;2022-10-04T10:11:46;2.05;;;1.27;;
26102;SDS011;32703;49.182;9.042;2022-10-04T10:39:36;2.40;;;1.13;;
26102;SDS011;32703;49.182;9.042;2022-10-04T10:45:34;1.80;;;0.90;;
26102;SDS011;32703;49.182;9.042;2022-10-04T11:03:18;1.65;;;1.05;;
26102;SDS011;32703;49.182;9.042;2022-10-04T11:06:09;1.05;;;0.90;;
26102;SDS011;32703;49.182;9.042;2022-10-04T11:37:21;1.35;;;1.00;;
26102;SDS011;32703;49.182;9.042;2022-10-04T11:45:19;3.15;;;1.08;;
26102;SDS011;32703;49.182;9.042;2022-10-04T11:51:04;1.27;;;0.77;;
26102;SDS011;32703;49.182;9.042;2022-10-04T11:56:25;1.00;;;0.63;;
26102;SDS011;32703;49.182;9.042;2022-10-04T12:04:45;1.30;;;0.98;;
26102;SDS011;32703;49.182;9.042;2022-10-04T12:07:37;2.20;;;1.10;;
26102;SDS011;32703;49.182;9.042;2022-10-04T12:13:18;3.90;;;0.80;;
26102;SDS011;32703;49.182;9.042;2022-10-04T12:21:39;2.55;;;1.00;;
26102;SDS011;32703;49.182;9.042;2022-10-04T12:27:32;0.70;;;0.70;;
26102;SDS011;32703;49.182;9.042;2022-10-04T12:35:21;1.33;;;0.88;;
26102;SDS011;32703;49.182;9.042;2022-10-04T12:40:51;1.70;;;0.80;;
26102;SDS011;32703;49.182;9.042;2022-10-04T12:46:33;1.20;;;1.00;;
26102;SDS011;32703;49.182;9.042;2022-10-04T12:51:55;1.13;;;0.70;;
26102;SDS011;32703;49.182;9.042;2022-10-04T12:54:55;2.75;;;1.00;;
26102;SDS011;32703;49.182;9.042;2022-10-04T13:00:18;3.60;;;1.10;;
26102;SDS011;32703;49.182;9.042;2022-10-04T13:16:18;1.17;;;1.00;;
26102;SDS011;32703;49.182;9.042;2022-10-04T13:21:45;1.15;;;0.80;;
26102;SDS011;32703;49.182;9.042;2022-10-04T13:24:50;2.63;;;1.08;;
26102;SDS011;32703;49.182;9.042;2022-10-04T13:27:37;1.80;;;0.80;;
26102;SDS011;32703;49.182;9.042;2022-10-04T13:30:24;1.52;;;0.77;;
26102;SDS011;32703;49.182;9.042;2022-10-04T13:33:01;1.10;;;0.80;;
26102;SDS011;32703;49.182;9.042;2022-10-04T13:35:40;1.35;;;0.93;;
26102;SDS011;32703;49.182;9.042;2022-10-04T13:43:52;1.35;;;0.82;;
26102;SDS011;32703;49.182;9.042;2022-10-04T13:52:21;1.20;;;0.80;;
26102;SDS011;32703;49.182;9.042;2022-10-04T13:55:32;2.05;;;0.70;;
26102;SDS011;32703;49.182;9.042;2022-10-04T13:59:16;1.40;;;0.90;;
26102;SDS011;32703;49.182;9.042;2022-10-04T14:04:31;1.50;;;0.90;;
26102;SDS011;32703;49.182;9.042;2022-10-04T14:15:37;1.35;;;0.90;;
26102;SDS011;32703;49.182;9.042;2022-10-04T14:35:02;1.33;;;0.75;;
26102;SDS011;32703;49.182;9.042;2022-10-04T14:54:57;1.15;;;0.90;;
26102;SDS011;32703;49.182;9.042;2022-10-04T15:03:06;1.67;;;0.90;;
26102;SDS011;32703;49.182;9.042;2022-10-04T15:05:29;2.70;;;0.85;;
26102;SDS011;32703;49.182;9.042;2022-10-04T15:10:48;2.10;;;0.95;;
26102;SDS011;32703;49.182;9.042;2022-10-04T15:18:55;2.08;;;0.88;;
26102;SDS011;32703;49.182;9.042;2022-10-04T15:26:46;1.90;;;1.10;;
26102;SDS011;32703;49.182;9.042;2022-10-04T15:29:40;1.40;;;1.10;;
26102;SDS011;32703;49.182;9.042;2022-10-04T15:32:44;2.70;;;0.90;;
26102;SDS011;32703;49.182;9.042;2022-10-04T15:46:32;0.85;;;0.82;;
26102;SDS011;32703;49.182;9.042;2022-10-04T15:49:34;1.90;;;1.13;;
26102;SDS011;32703;49.182;9.042;2022-10-04T15:52:17;1.38;;;0.90;;
26102;SDS011;32703;49.182;9.042;2022-10-04T16:04:09;2.38;;;1.15;;
26102;SDS011;32703;49.182;9.042;2022-10-04T16:06:57;2.35;;;1.30;;
26102;SDS011;32703;49.182;9.042;2022-10-04T16:12:30;1.63;;;1.20;;
26102;SDS011;32703;49.182;9.042;2022-10-04T16:15:29;1.08;;;0.98;;
26102;SDS011;32703;49.182;9.042;2022-10-04T16:23:44;2.45;;;1.17;;
26102;SDS011;32703;49.182;9.042;2022-10-04T16:28:44;1.10;;;0.90;;
26102;SDS011;32703;49.182;9.042;2022-10-04T16:31:36;3.35;;;0.98;;
26102;SDS011;32703;49.182;9.042;2022-10-04T16:39:58;1.98;;;1.05;;
26102;SDS011;32703;49.182;9.042;2022-10-04T16:47:51;1.58;;;0.93;;
26102;SDS011;32703;49.182;9.042;2022-10-04T16:56:11;1.70;;;1.00;;
26102;SDS011;32703;49.182;9.042;2022-10-04T17:09:16;1.50;;;1.17;;
26102;SDS011;32703;49.182;9.042;2022-10-04T17:36:45;3.10;;;1.85;;
26102;SDS011;32703;49.182;9.042;2022-10-04T17:47:41;2.55;;;1.95;;
26102;SDS011;32703;49.182;9.042;2022-10-04T17:51:02;3.45;;;2.38;;
26102;SDS011;32703;49.182;9.042;2022-10-04T17:53:56;4.22;;;2.53;;
26102;SDS011;32703;49.182;9.042;2022-10-04T17:59:27;6.38;;;2.65;;
26102;SDS011;32703;49.182;9.042;2022-10-04T18:02:00;7.43;;;3.03;;
26102;SDS011;32703;49.182;9.042;2022-10-04T18:04:35;5.90;;;2.80;;
26102;SDS011;32703;49.182;9.042;2022-10-04T18:07:22;6.00;;;2.40;;
26102;SDS011;32703;49.182;9.042;2022-10-04T18:09:52;3.65;;;2.28;;
26102;SDS011;32703;49.182;9.042;2022-10-04T18:12:33;5.45;;;2.88;;
26102;SDS011;32703;49.182;9.042;2022-10-04T18:15:07;5.38;;;2.75;;
26102;SDS011;32703;49.182;9.042;2022-10-04T18:17:46;7.22;;;3.20;;
26102;SDS011;32703;49.182;9.042;2022-10-04T18:20:16;4.90;;;3.35;;
26102;SDS011;32703;49.182;9.042;2022-10-04T18:22:50;4.43;;;2.47;;
26102;SDS011;32703;49.182;9.042;2022-10-04T18:25:38;3.17;;;2.03;;
26102;SDS011;32703;49.182;9.042;2022-10-04T18:30:34;6.25;;;2.03;;
26102;SDS011;32703;49.182;9.042;2022-10-04T18:33:29;3.15;;;2.20;;
26102;SDS011;32703;49.182;9.042;2022-10-04T18:38:44;3.45;;;1.88;;
26102;SDS011;32703;49.182;9.042;2022-10-04T18:41:24;4.32;;;1.65;;
26102;SDS011;32703;49.182;9.042;2022-10-04T18:44:15;3.33;;;1.95;;
26102;SDS011;32703;49.182;9.042;2022-10-04T18:46:44;4.25;;;1.95;;
26102;SDS011;32703;49.182;9.042;2022-10-04T18:49:18;5.32;;;2.50;;
26102;SDS011;32703;49.182;9.042;2022-10-04T18:51:50;3.35;;;2.22;;
26102;SDS011;32703;49.182;9.042;2022-10-04T19:00:19;4.20;;;2.33;;
26102;SDS011;32703;49.182;9.042;2022-10-04T19:03:06;6.88;;;3.03;;
26102;SDS011;32703;49.182;9.042;2022-10-04T19:05:50;3.83;;;2.15;;
26102;SDS011;32703;49.182;9.042;2022-10-04T19:08:38;5.28;;;2.60;;
26102;SDS011;32703;49.182;9.042;2022-10-04T19:11:16;5.07;;;3.20;;
26102;SDS011;32703;49.182;9.042;2022-10-04T19:13:58;4.95;;;2.58;;
26102;SDS011;32703;49.182;9.042;2022-10-04T19:19:16;4.70;;;2.35;;
26102;SDS011;32703;49.182;9.042;2022-10-04T19:22:11;5.22;;;2.20;;
26102;SDS011;32703;49.182;9.042;2022-10-04T19:24:50;4.78;;;2.80;;
26102;SDS011;32703;49.182;9.042;2022-10-04T19:27:47;2.85;;;1.60;;
26102;SDS011;32703;49.182;9.042;2022-10-04T19:30:20;6.03;;;1.92;;
26102;SDS011;32703;49.182;9.042;2022-10-04T19:32:52;3.08;;;1.52;;
26102;SDS011;32703;49.182;9.042;2022-10-04T19:35:32;2.05;;;1.33;;
26102;SDS011;32703;49.182;9.042;2022-10-04T19:40:49;5.35;;;1.98;;
26102;SDS011;32703;49.182;9.042;2022-10-04T19:43:28;3.72;;;1.23;;
26102;SDS011;32703;49.182;9.042;2022-10-04T19:48:53;2.03;;;1.30;;
26102;SDS011;32703;49.182;9.042;2022-10-04T19:53:53;3.45;;;1.63;;
26102;SDS011;32703;49.182;9.042;2022-10-04T19:56:42;2.90;;;1.60;;
26102;SDS011;32703;49.182;9.042;2022-10-04T19:59:17;1.63;;;1.33;;
26102;SDS011;32703;49.182;9.042;2022-10-04T20:01:50;1.98;;;1.48;;
26102;SDS011;32703;49.182;9.042;2022-10-04T20:04:16;4.50;;;1.98;;
26102;SDS011;32703;49.182;9.042;2022-10-04T20:07:03;2.33;;;1.63;;
26102;SDS011;32703;49.182;9.042;2022-10-04T20:12:31;2.95;;;1.42;;
26102;SDS011;32703;49.182;9.042;2022-10-04T20:17:44;5.28;;;2.80;;
26102;SDS011;32703;49.182;9.042;2022-10-04T20:20:12;4.47;;;2.45;;
26102;SDS011;32703;49.182;9.042;2022-10-04T20:28:10;7.18;;;3.47;;
26102;SDS011;32703;49.182;9.042;2022-10-04T20:30:59;6.10;;;2.75;;
26102;SDS011;32703;49.182;9.042;2022-10-04T20:36:02;3.10;;;1.95;;
26102;SDS011;32703;49.182;9.042;2022-10-04T20:43:52;4.05;;;2.30;;
26102;SDS011;32703;49.182;9.042;2022-10-04T20:46:23;4.43;;;2.15;;
26102;SDS011;32703;49.182;9.042;2022-10-04T20:48:51;3.97;;;2.17;;
26102;SDS011;32703;49.182;9.042;2022-10-04T20:51:18;5.93;;;2.80;;
26102;SDS011;32703;49.182;9.042;2022-10-04T20:53:44;4.30;;;2.63;;
26102;SDS011;32703;49.182;9.042;2022-10-04T20:56:29;7.15;;;2.63;;
26102;SDS011;32703;49.182;9.042;2022-10-04T20:58:56;4.88;;;2.70;;
26102;SDS011;32703;49.182;9.042;2022-10-04T21:01:25;3.83;;;2.30;;
26102;SDS011;32703;49.182;9.042;2022-10-04T21:06:57;6.78;;;3.65;;
26102;SDS011;32703;49.182;9.042;2022-10-04T21:09:31;7.30;;;3.30;;
26102;SDS011;32703;49.182;9.042;2022-10-04T21:11:59;5.85;;;2.60;;
26102;SDS011;32703;49.182;9.042;2022-10-04T21:14:34;6.65;;;3.00;;
26102;SDS011;32703;49.182;9.042;2022-10-04T21:17:04;5.30;;;2.50;;
26102;SDS011;32703;49.182;9.042;2022-10-04T21:19:49;3.95;;;2.58;;
26102;SDS011;32703;49.182;9.042;2022-10-04T21:27:24;6.82;;;3.08;;
26102;SDS011;32703;49.182;9.042;2022-10-04T21:29:51;4.38;;;2.22;;
26102;SDS011;32703;49.182;9.042;2022-10-04T21:32:20;5.00;;;2.00;;
26102;SDS011;32703;49.182;9.042;2022-10-04T21:34:50;7.43;;;2.78;;
26102;SDS011;32703;49.182;9.042;2022-10-04T21:37:16;4.28;;;2.40;;
26102;SDS011;32703;49.182;9.042;2022-10-04T21:39:42;3.40;;;2.08;;
26102;SDS011;32703;49.182;9.042;2022-10-04T21:42:07;7.40;;;2.40;;
26102;SDS011;32703;49.182;9.042;2022-10-04T21:44:33;4.03;;;2.20;;
26102;SDS011;32703;49.182;9.042;2022-10-04T21:46:59;4.15;;;2.20;;
26102;SDS011;32703;49.182;9.042;2022-10-04T21:49:24;3.78;;;2.08;;
26102;SDS011;32703;49.182;9.042;2022-10-04T21:51:50;2.95;;;1.85;;
26102;SDS011;32703;49.182;9.042;2022-10-04T21:54:16;4.25;;;2.67;;
26102;SDS011;32703;49.182;9.042;2022-10-04T21:56:41;5.10;;;2.67;;
26102;SDS011;32703;49.182;9.042;2022-10-04T21:59:07;4.85;;;2.42;;
26102;SDS011;32703;49.182;9.042;2022-10-04T22:01:32;6.60;;;2.67;;
26102;SDS011;32703;49.182;9.042;2022-10-04T22:03:58;5.85;;;2.78;;
26102;SDS011;32703;49.182;9.042;2022-10-04T22:06:24;4.55;;;2.10;;
26102;SDS011;32703;49.182;9.042;2022-10-04T22:08:49;3.72;;;1.80;;
26102;SDS011;32703;49.182;9.042;2022-10-04T22:11:15;4.35;;;2.40;;
26102;SDS011;32703;49.182;9.042;2022-10-04T22:13:40;4.50;;;2.70;;
26102;SDS011;32703;49.182;9.042;2022-10-04T22:16:06;4.03;;;2.60;;
26102;SDS011;32703;49.182;9.042;2022-10-04T22:18:32;4.45;;;2.65;;
26102;SDS011;32703;49.182;9.042;2022-10-04T22:20:58;5.43;;;2.90;;
26102;SDS011;32703;49.182;9.042;2022-10-04T22:23:25;6.38;;;3.55;;
26102;SDS011;32703;49.182;9.042;2022-10-04T22:25:52;5.25;;;3.08;;
26102;SDS011;32703;49.182;9.042;2022-10-04T22:28:26;4.25;;;2.50;;
26102;SDS011;32703;49.182;9.042;2022-10-04T22:30:53;4.45;;;2.63;;
26102;SDS011;32703;49.182;9.042;2022-10-04T22:35:58;4.38;;;2.65;;
26102;SDS011;32703;49.182;9.042;2022-10-04T22:38:44;3.58;;;2.05;;
26102;SDS011;32703;49.182;9.042;2022-10-04T22:41:15;4.25;;;2.10;;
26102;SDS011;32703;49.182;9.042;2022-10-04T22:43:46;4.32;;;2.67;;
26102;SDS011;32703;49.182;9.042;2022-10-04T22:46:17;3.15;;;1.95;;
26102;SDS011;32703;49.182;9.042;2022-10-04T22:48:44;3.60;;;1.80;;
26102;SDS011;32703;49.182;9.042;2022-10-04T22:51:11;3.40;;;2.03;;
26102;SDS011;32703;49.182;9.042;2022-10-04T22:53:45;2.97;;;1.70;;
26102;SDS011;32703;49.182;9.042;2022-10-04T22:56:12;4.68;;;2.08;;
26102;SDS011;32703;49.182;9.042;2022-10-04T22:58:38;4.15;;;2.10;;
26102;SDS011;32703;49.182;9.042;2022-10-04T23:01:11;3.13;;;2.00;;
26102;SDS011;32703;49.182;9.042;2022-10-04T23:03:43;2.45;;;1.73;;
26102;SDS011;32703;49.182;9.042;2022-10-04T23:06:10;3.00;;;2.17;;
26102;SDS011;32703;49.182;9.042;2022-10-04T23:08:38;4.18;;;2.30;;
26102;SDS011;32703;49.182;9.042;2022-10-04T23:11:05;3.78;;;2.17;;
26102;SDS011;32703;49.182;9.042;2022-10-04T23:13:31;3.25;;;2.17;;
26102;SDS011;32703;49.182;9.042;2022-10-04T23:15:58;4.45;;;2.05;;
26102;SDS011;32703;49.182;9.042;2022-10-04T23:18:25;2.25;;;1.70;;
26102;SDS011;32703;49.182;9.042;2022-10-04T23:20:56;3.72;;;1.83;;
26102;SDS011;32703;49.182;9.042;2022-10-04T23:23:25;2.38;;;1.50;;
26102;SDS011;32703;49.182;9.042;2022-10-04T23:25:52;4.30;;;2.50;;
26102;SDS011;32703;49.182;9.042;2022-10-04T23:28:18;2.13;;;1.60;;
26102;SDS011;32703;49.182;9.042;2022-10-04T23:30:44;2.78;;;1.88;;
26102;SDS011;32703;49.182;9.042;2022-10-04T23:33:24;2.72;;;1.95;;
26102;SDS011;32703;49.182;9.042;2022-10-04T23:35:49;2.47;;;1.77;;
26102;SDS011;32703;49.182;9.042;2022-10-04T23:38:18;4.25;;;2.05;;
26102;SDS011;32703;49.182;9.042;2022-10-04T23:40:45;3.72;;;2.13;;
26102;SDS011;32703;49.182;9.042;2022-10-04T23:43:20;3.35;;;1.95;;
26102;SDS011;32703;49.182;9.042;2022-10-04T23:45:49;2.83;;;1.80;;
26102;SDS011;32703;49.182;9.042;2022-10-04T23:48:19;2.65;;;1.63;;
26102;SDS011;32703;49.182;9.042;2022-10-04T23:50:48;3.37;;;2.23;;
26102;SDS011;32703;49.182;9.042;2022-10-04T23:53:21;3.72;;;2.20;;
26102;SDS011;32703;49.182;9.042;2022-10-04T23:55:56;4.00;;;2.08;;
26102;SDS011;32703;49.182;9.042;2022-10-04T23:58:27;3.97;;;1.92;;
